Time;durP1;ratioP1;P1;durP2;ratioP2;P2;SDS_P1;SDS_P2;PMS_P1;PMS_P2;Temp;Humidity;BMP_temperature;BMP_pressure;BME280_temperature;BME280_humidity;BME280_pressure;Samples;Min_cycle;Max_cycle;Signal;HPM_P1;HPM_P2
2021/07/24 00:00:43;;;;;;;;;;;13.60;99.90;;;;;;5070397;28;19909;-56
2021/07/24 00:03:08;;;;;;;;;;;13.50;99.90;;;;;;5070481;28;19915;-59
2021/07/24 00:05:34;;;;;;;;;;;13.50;99.90;;;;;;5069779;28;20504;-60
2021/07/24 00:07:59;;;;;;;;;;;13.50;99.90;;;;;;5070520;28;19913;-58
2021/07/24 00:10:25;;;;;;;;;;;13.50;99.90;;;;;;5070061;28;19958;-59
2021/07/24 00:12:50;;;;;;;;;;;13.50;99.90;;;;;;5070322;28;19919;-58
2021/07/24 00:15:16;;;;;;;;;;;13.50;99.90;;;;;;5069959;28;19912;-59
2021/07/24 00:17:41;;;;;;;;;;;13.50;99.90;;;;;;5070370;28;19908;-59
2021/07/24 00:20:07;;;;;;;;;;;13.50;99.90;;;;;;5070101;28;19908;-57
2021/07/24 00:22:32;;;;;;;;;;;13.40;99.90;;;;;;5070293;28;19935;-57
2021/07/24 00:24:58;;;;;;;;;;;13.40;99.90;;;;;;5069966;28;19915;-60
2021/07/24 00:27:23;;;;;;;;;;;13.40;99.90;;;;;;5070239;28;19909;-58
2021/07/24 00:29:50;;;;;;;;;;;13.40;99.90;;;;;;5070276;28;19935;-57
2021/07/24 00:32:16;;;;;;;;;;;13.40;99.90;;;;;;5069963;28;20501;-59
2021/07/24 00:34:41;;;;;;;;;;;13.40;99.90;;;;;;5069679;28;19947;-58
2021/07/24 00:37:07;;;;;;;;;;;13.40;99.90;;;;;;5070291;28;19948;-60
2021/07/24 00:39:32;;;;;;;;;;;13.40;99.90;;;;;;5069697;28;19917;-59
2021/07/24 00:42:16;;;;;;;;;;;13.40;99.90;;;;;;5070204;28;20410;-58
2021/07/24 00:44:45;;;;;;;;;;;13.40;99.90;;;;;;5069455;28;19909;-58
2021/07/24 00:47:18;;;;;;;;;;;13.40;99.90;;;;;;5070045;28;19923;-60
2021/07/24 00:49:46;;;;;;;;;;;13.40;99.90;;;;;;5069959;28;19948;-60
2021/07/24 00:52:12;;;;;;;;;;;13.40;99.90;;;;;;5070355;28;19995;-60
2021/07/24 00:54:39;;;;;;;;;;;13.40;99.90;;;;;;5067440;28;20077;-60
2021/07/24 00:57:05;;;;;;;;;;;13.40;99.90;;;;;;5070078;28;19931;-59
2021/07/24 00:59:30;;;;;;;;;;;13.40;99.90;;;;;;5067522;28;19913;-59
2021/07/24 01:01:56;;;;;;;;;;;13.40;99.90;;;;;;5067629;28;19931;-59
2021/07/24 01:04:22;;;;;;;;;;;13.40;99.90;;;;;;5068249;28;19915;-59
2021/07/24 01:06:49;;;;;;;;;;;13.40;99.90;;;;;;5069571;28;19908;-60
2021/07/24 01:09:14;;;;;;;;;;;13.40;99.90;;;;;;5069628;28;19966;-58
2021/07/24 01:11:40;;;;;;;;;;;13.30;99.90;;;;;;5051960;28;19924;-60
2021/07/24 01:14:06;;;;;;;;;;;13.30;99.90;;;;;;5051099;28;19913;-60
2021/07/24 01:16:31;;;;;;;;;;;13.30;99.90;;;;;;5069636;28;19913;-60
2021/07/24 01:18:57;;;;;;;;;;;13.30;99.90;;;;;;5069557;28;20399;-61
2021/07/24 01:21:24;;;;;;;;;;;13.30;99.90;;;;;;5069952;28;19954;-61
2021/07/24 01:23:50;;;;;;;;;;;13.20;99.90;;;;;;5069562;28;19991;-60
2021/07/24 01:26:22;;;;;;;;;;;13.20;99.90;;;;;;5069385;28;20012;-58
2021/07/24 01:28:49;;;;;;;;;;;13.10;99.90;;;;;;5069436;28;19978;-59
2021/07/24 01:31:14;;;;;;;;;;;13.10;99.90;;;;;;5069436;28;19995;-58
2021/07/24 01:33:40;;;;;;;;;;;13.10;99.90;;;;;;5071931;28;20003;-59
2021/07/24 01:36:05;;;;;;;;;;;13.10;99.90;;;;;;5054897;28;20050;-60
2021/07/24 01:38:31;;;;;;;;;;;13.10;99.90;;;;;;5072926;28;19916;-60
2021/07/24 01:40:56;;;;;;;;;;;13.10;99.90;;;;;;5123171;22;19931;-48
2021/07/24 01:43:22;;;;;;;;;;;13.10;99.90;;;;;;5110392;28;19933;-49
2021/07/24 01:45:47;;;;;;;;;;;13.00;99.90;;;;;;5107925;28;19908;-52
2021/07/24 01:48:30;;;;;;;;;;;13.00;99.90;;;;;;5102811;28;19926;-51
2021/07/24 01:53:40;;;;;;;;;;;13.00;99.90;;;;;;5102503;28;19930;-52
2021/07/24 01:56:07;;;;;;;;;;;13.00;99.90;;;;;;5102238;28;20421;-48
2021/07/24 01:58:33;;;;;;;;;;;12.90;99.90;;;;;;5106678;28;19908;-51
2021/07/24 02:01:04;;;;;;;;;;;12.90;99.90;;;;;;5103362;28;20418;-49
2021/07/24 02:03:41;;;;;;;;;;;12.90;99.90;;;;;;5100908;28;19908;-50
2021/07/24 02:06:09;;;;;;;;;;;12.90;99.90;;;;;;5103377;28;19954;-50
2021/07/24 02:08:35;;;;;;;;;;;12.80;99.90;;;;;;5105690;28;20010;-49
2021/07/24 02:11:01;;;;;;;;;;;12.80;99.90;;;;;;5102610;28;20451;-53
2021/07/24 02:13:27;;;;;;;;;;;12.80;99.90;;;;;;5107533;28;19908;-51
2021/07/24 02:15:52;;;;;;;;;;;12.80;99.90;;;;;;5091903;28;19937;-52
2021/07/24 02:18:19;;;;;;;;;;;12.80;99.90;;;;;;5104896;28;19908;-47
2021/07/24 02:20:45;;;;;;;;;;;12.80;99.90;;;;;;5082847;28;19908;-54
2021/07/24 02:23:10;;;;;;;;;;;12.80;99.90;;;;;;5106601;28;19916;-55
2021/07/24 02:25:36;;;;;;;;;;;12.80;99.90;;;;;;5104140;28;19933;-49
2021/07/24 02:28:01;;;;;;;;;;;12.80;99.90;;;;;;5101826;28;19908;-52
2021/07/24 02:30:27;;;;;;;;;;;12.80;99.90;;;;;;5104248;28;19911;-50
2021/07/24 02:32:52;;;;;;;;;;;12.80;99.90;;;;;;5102768;28;20013;-50
2021/07/24 02:35:18;;;;;;;;;;;12.80;99.90;;;;;;5103765;28;19908;-49
2021/07/24 02:37:43;;;;;;;;;;;12.80;99.90;;;;;;5104116;28;19907;-51
2021/07/24 02:40:09;;;;;;;;;;;12.70;99.90;;;;;;5085060;28;19916;-50
2021/07/24 02:42:34;;;;;;;;;;;12.70;99.90;;;;;;5104170;28;19995;-48
2021/07/24 02:45:00;;;;;;;;;;;12.70;99.90;;;;;;5100286;28;19916;-50
2021/07/24 02:47:25;;;;;;;;;;;12.70;99.90;;;;;;5104321;28;19912;-55
2021/07/24 02:49:51;;;;;;;;;;;12.70;99.90;;;;;;5103068;28;20420;-51
2021/07/24 02:52:16;;;;;;;;;;;12.70;99.90;;;;;;5103919;28;19952;-49
2021/07/24 02:54:42;;;;;;;;;;;12.70;99.90;;;;;;5103634;28;19981;-52
2021/07/24 02:57:07;;;;;;;;;;;12.60;99.90;;;;;;5101430;28;19999;-54
2021/07/24 02:59:33;;;;;;;;;;;12.60;99.90;;;;;;5103734;28;19908;-52
2021/07/24 03:01:59;;;;;;;;;;;12.60;99.90;;;;;;5102094;28;19912;-51
2021/07/24 03:04:24;;;;;;;;;;;12.60;99.90;;;;;;5103658;28;19969;-51
2021/07/24 03:06:50;;;;;;;;;;;12.60;99.90;;;;;;5102840;28;19911;-54
2021/07/24 03:09:15;;;;;;;;;;;12.60;99.90;;;;;;5103754;28;20470;-51
2021/07/24 03:11:41;;;;;;;;;;;12.50;99.90;;;;;;5103606;28;19915;-48
2021/07/24 03:14:07;;;;;;;;;;;12.50;99.90;;;;;;5082724;28;20374;-52
2021/07/24 03:16:32;;;;;;;;;;;12.60;99.90;;;;;;5103904;28;19955;-52
2021/07/24 03:18:58;;;;;;;;;;;12.50;99.90;;;;;;5102030;28;19941;-48
2021/07/24 03:21:23;;;;;;;;;;;12.50;99.90;;;;;;5085412;28;19962;-48
2021/07/24 03:23:49;;;;;;;;;;;12.50;99.90;;;;;;5103176;28;20294;-53
2021/07/24 03:26:15;;;;;;;;;;;12.50;99.90;;;;;;5100908;28;19907;-55
2021/07/24 03:28:40;;;;;;;;;;;12.50;99.90;;;;;;5103277;28;19923;-52
2021/07/24 03:31:05;;;;;;;;;;;12.50;99.90;;;;;;5083584;28;20374;-54
2021/07/24 03:33:31;;;;;;;;;;;12.50;99.90;;;;;;5103051;28;19961;-50
2021/07/24 03:35:57;;;;;;;;;;;12.40;99.90;;;;;;5102288;28;19915;-54
2021/07/24 03:38:23;;;;;;;;;;;12.50;99.90;;;;;;5103157;28;19915;-51
2021/07/24 03:40:48;;;;;;;;;;;12.40;99.90;;;;;;5102963;28;19923;-51
2021/07/24 03:43:14;;;;;;;;;;;12.40;99.90;;;;;;5100968;28;19908;-51
2021/07/24 03:45:39;;;;;;;;;;;12.40;99.90;;;;;;5103051;28;19964;-55
2021/07/24 03:48:05;;;;;;;;;;;12.50;99.90;;;;;;5101845;28;19919;-57
2021/07/24 03:50:31;;;;;;;;;;;12.50;99.90;;;;;;5102833;28;20381;-48
2021/07/24 03:52:57;;;;;;;;;;;12.50;99.90;;;;;;5102383;28;19915;-48
2021/07/24 03:55:23;;;;;;;;;;;12.50;99.90;;;;;;5102245;28;19908;-55
2021/07/24 03:57:49;;;;;;;;;;;12.50;99.90;;;;;;5102954;28;19934;-51
2021/07/24 04:00:15;;;;;;;;;;;12.50;99.90;;;;;;5082288;28;19934;-48
2021/07/24 04:02:42;;;;;;;;;;;12.50;99.90;;;;;;5102628;28;19907;-52
2021/07/24 04:05:08;;;;;;;;;;;12.50;99.90;;;;;;5101103;28;19961;-56
2021/07/24 04:07:34;;;;;;;;;;;12.50;99.90;;;;;;5102814;28;19912;-54
2021/07/24 04:10:00;;;;;;;;;;;12.50;99.90;;;;;;5102161;28;20287;-53
2021/07/24 04:12:26;;;;;;;;;;;12.50;99.90;;;;;;5102669;28;19907;-52
2021/07/24 04:14:51;;;;;;;;;;;12.50;99.90;;;;;;5102397;28;19961;-49
2021/07/24 04:17:17;;;;;;;;;;;12.50;99.90;;;;;;5101258;28;19908;-49
2021/07/24 04:19:42;;;;;;;;;;;12.60;99.90;;;;;;5102500;28;20314;-53
2021/07/24 04:22:07;;;;;;;;;;;12.60;99.90;;;;;;5101311;28;20382;-50
2021/07/24 04:24:33;;;;;;;;;;;12.60;99.90;;;;;;5099054;28;19908;-51
2021/07/24 04:26:58;;;;;;;;;;;12.60;99.90;;;;;;5086985;28;20350;-53
2021/07/24 04:29:24;;;;;;;;;;;12.60;99.90;;;;;;5098632;28;20309;-51
2021/07/24 04:31:50;;;;;;;;;;;12.60;99.90;;;;;;5106056;28;20049;-53
2021/07/24 04:34:16;;;;;;;;;;;12.70;99.90;;;;;;5094015;28;20319;-50
2021/07/24 04:36:42;;;;;;;;;;;12.70;99.90;;;;;;5105573;28;20001;-53
2021/07/24 04:39:07;;;;;;;;;;;12.70;99.90;;;;;;5099479;28;19969;-52
2021/07/24 04:41:33;;;;;;;;;;;12.80;99.90;;;;;;5098609;28;20397;-50
2021/07/24 04:43:58;;;;;;;;;;;12.80;99.90;;;;;;5105156;28;19994;-49
2021/07/24 04:46:24;;;;;;;;;;;12.80;99.90;;;;;;5098687;28;19915;-50
2021/07/24 04:48:49;;;;;;;;;;;12.90;99.90;;;;;;5106028;28;19919;-54
2021/07/24 04:51:15;;;;;;;;;;;12.90;99.90;;;;;;5098517;28;19991;-47
2021/07/24 04:53:42;;;;;;;;;;;12.90;99.90;;;;;;5105692;28;19914;-55
2021/07/24 04:56:08;;;;;;;;;;;13.00;99.90;;;;;;5099328;28;19915;-56
2021/07/24 04:58:34;;;;;;;;;;;13.00;99.90;;;;;;5098524;28;19916;-52
2021/07/24 05:00:59;;;;;;;;;;;13.00;99.90;;;;;;5105036;28;19912;-55
2021/07/24 05:03:25;;;;;;;;;;;13.10;99.90;;;;;;5098455;28;19908;-50
2021/07/24 05:05:53;;;;;;;;;;;13.10;99.90;;;;;;5105572;28;19907;-48
2021/07/24 05:08:18;;;;;;;;;;;13.20;99.90;;;;;;5100531;28;19955;-51
2021/07/24 05:10:44;;;;;;;;;;;13.20;99.90;;;;;;5109769;28;19918;-52
2021/07/24 05:13:10;;;;;;;;;;;13.30;99.90;;;;;;5103088;28;19916;-55
2021/07/24 05:15:37;;;;;;;;;;;13.40;99.90;;;;;;5102515;28;19908;-49
2021/07/24 05:18:03;;;;;;;;;;;13.40;99.90;;;;;;5109158;28;19907;-49
2021/07/24 05:20:30;;;;;;;;;;;13.50;99.90;;;;;;5102279;28;20397;-52
2021/07/24 05:22:55;;;;;;;;;;;13.60;99.90;;;;;;5104830;28;20476;-49
2021/07/24 05:25:21;;;;;;;;;;;13.60;99.90;;;;;;5105237;28;19925;-53
2021/07/24 05:27:46;;;;;;;;;;;13.70;99.90;;;;;;5085690;28;20378;-51
2021/07/24 05:30:12;;;;;;;;;;;13.80;99.90;;;;;;5105037;28;19912;-48
2021/07/24 05:32:38;;;;;;;;;;;13.90;99.90;;;;;;5105862;28;19922;-50
2021/07/24 05:35:05;;;;;;;;;;;14.00;99.90;;;;;;5103475;28;19908;-53
2021/07/24 05:37:30;;;;;;;;;;;14.00;99.90;;;;;;5107878;28;19912;-54
2021/07/24 05:39:56;;;;;;;;;;;14.10;99.90;;;;;;5102543;28;19961;-50
2021/07/24 05:42:21;;;;;;;;;;;14.20;99.90;;;;;;5105587;28;19908;-50
2021/07/24 05:44:47;;;;;;;;;;;14.30;99.90;;;;;;5103613;28;20328;-53
2021/07/24 05:47:12;;;;;;;;;;;14.40;99.90;;;;;;5104899;28;19912;-50
2021/07/24 05:49:38;;;;;;;;;;;14.50;99.90;;;;;;5087141;28;19963;-49
2021/07/24 05:52:08;;;;;;;;;;;14.70;99.90;;;;;;5103567;28;19916;-54
2021/07/24 05:54:37;;;;;;;;;;;14.80;99.90;;;;;;5106681;28;19953;-49
2021/07/24 05:57:06;;;;;;;;;;;14.90;99.90;;;;;;5103436;28;19942;-50
2021/07/24 05:59:33;;;;;;;;;;;15.00;99.90;;;;;;5104853;28;19915;-54
2021/07/24 06:01:58;;;;;;;;;;;15.10;99.90;;;;;;5102681;28;19912;-51
2021/07/24 06:04:24;;;;;;;;;;;15.20;99.90;;;;;;5104764;28;20004;-50
2021/07/24 06:06:49;;;;;;;;;;;15.30;99.90;;;;;;5103432;28;19908;-57
2021/07/24 06:09:15;;;;;;;;;;;15.50;99.90;;;;;;5090212;28;19912;-52
2021/07/24 06:11:40;;;;;;;;;;;15.60;99.90;;;;;;5103217;28;19912;-48
2021/07/24 06:14:05;;;;;;;;;;;15.80;99.90;;;;;;5103450;28;19909;-56
2021/07/24 06:16:31;;;;;;;;;;;15.90;99.90;;;;;;5104733;28;19991;-47
2021/07/24 06:18:59;;;;;;;;;;;16.10;99.90;;;;;;5084047;28;19908;-49
2021/07/24 06:21:24;;;;;;;;;;;16.30;99.90;;;;;;5104637;28;19908;-51
2021/07/24 06:23:49;;;;;;;;;;;16.50;99.90;;;;;;5106375;28;20015;-54
2021/07/24 06:26:15;;;;;;;;;;;16.60;99.90;;;;;;5101737;28;19908;-52
2021/07/24 06:28:40;;;;;;;;;;;16.80;99.90;;;;;;5104437;28;19942;-52
2021/07/24 06:31:06;;;;;;;;;;;16.90;99.90;;;;;;5084241;28;19999;-55
2021/07/24 06:33:34;;;;;;;;;;;17.10;99.90;;;;;;5104326;28;19908;-50
2021/07/24 06:36:00;;;;;;;;;;;17.20;99.90;;;;;;5103496;28;19908;-51
2021/07/24 06:38:26;;;;;;;;;;;17.40;99.90;;;;;;5109987;28;19915;-51
2021/07/24 06:40:52;;;;;;;;;;;17.50;99.90;;;;;;5103720;28;20305;-47
2021/07/24 06:43:17;;;;;;;;;;;17.70;99.90;;;;;;5102553;28;19908;-56
2021/07/24 06:45:43;;;;;;;;;;;17.90;99.90;;;;;;5104205;28;20023;-52
2021/07/24 06:48:08;;;;;;;;;;;18.00;99.90;;;;;;5102831;28;20374;-48
2021/07/24 06:50:34;;;;;;;;;;;18.20;99.90;;;;;;5103842;28;20011;-48
2021/07/24 06:52:59;;;;;;;;;;;18.40;99.90;;;;;;5103627;28;20370;-50
2021/07/24 06:55:25;;;;;;;;;;;18.50;99.90;;;;;;5103737;28;20289;-51
2021/07/24 06:57:51;;;;;;;;;;;18.70;99.90;;;;;;5103807;28;19912;-55
2021/07/24 07:00:16;;;;;;;;;;;18.70;99.90;;;;;;5083590;28;19912;-47
2021/07/24 07:02:42;;;;;;;;;;;18.90;99.90;;;;;;5103658;28;19908;-49
2021/07/24 07:05:08;;;;;;;;;;;19.00;99.90;;;;;;5102152;28;19915;-54
2021/07/24 07:07:33;;;;;;;;;;;19.20;99.90;;;;;;5103951;28;20323;-53
2021/07/24 07:09:59;;;;;;;;;;;19.40;99.90;;;;;;5103198;28;20011;-51
2021/07/24 07:12:24;;;;;;;;;;;19.60;99.90;;;;;;5103838;28;19961;-49
2021/07/24 07:14:50;;;;;;;;;;;19.80;99.90;;;;;;5103447;28;19912;-54
2021/07/24 07:17:15;;;;;;;;;;;19.90;99.90;;;;;;5101735;28;20347;-55
2021/07/24 07:19:41;;;;;;;;;;;20.00;99.90;;;;;;5103512;28;19908;-49
2021/07/24 07:22:06;;;;;;;;;;;20.10;99.90;;;;;;5102534;28;19909;-55
2021/07/24 07:24:32;;;;;;;;;;;20.20;99.90;;;;;;5100308;28;19908;-52
2021/07/24 07:26:58;;;;;;;;;;;20.40;99.90;;;;;;5106437;28;20326;-52
2021/07/24 07:29:24;;;;;;;;;;;20.60;99.90;;;;;;5099565;28;20401;-51
2021/07/24 07:31:50;;;;;;;;;;;20.80;99.90;;;;;;5106403;28;19998;-57
2021/07/24 07:34:15;;;;;;;;;;;20.90;99.90;;;;;;5099493;28;20322;-53
2021/07/24 07:36:41;;;;;;;;;;;21.10;99.90;;;;;;5106367;28;19915;-50
2021/07/24 07:39:06;;;;;;;;;;;21.20;99.90;;;;;;5100599;28;20006;-53
2021/07/24 07:41:32;;;;;;;;;;;21.40;99.90;;;;;;5108860;22;19924;-61
2021/07/24 07:43:57;;;;;;;;;;;21.50;99.90;;;;;;5088273;28;19908;-61
2021/07/24 07:46:23;;;;;;;;;;;21.70;99.90;;;;;;5081554;28;19971;-61
2021/07/24 07:48:48;;;;;;;;;;;21.90;99.90;;;;;;5089702;28;20443;-60
2021/07/24 07:51:14;;;;;;;;;;;21.90;99.90;;;;;;5081753;28;19908;-61
2021/07/24 07:53:39;;;;;;;;;;;22.10;99.90;;;;;;5088512;28;19908;-61
2021/07/24 07:56:06;;;;;;;;;;;22.20;99.90;;;;;;5082477;28;19908;-61
2021/07/24 07:58:32;;;;;;;;;;;22.30;99.90;;;;;;5081231;28;20067;-61
2021/07/24 08:00:57;;;;;;;;;;;22.50;99.90;;;;;;5087860;28;19908;-61
2021/07/24 08:03:26;;;;;;;;;;;22.70;99.90;;;;;;5063293;28;19916;-62
2021/07/24 08:05:54;;;;;;;;;;;22.90;99.90;;;;;;5087628;28;19991;-59
2021/07/24 08:08:20;;;;;;;;;;;23.00;99.90;;;;;;5080319;28;19986;-58
2021/07/24 08:10:46;;;;;;;;;;;23.10;99.90;;;;;;5088069;28;19926;-58
2021/07/24 08:13:11;;;;;;;;;;;23.30;99.90;;;;;;5079384;28;19923;-60
2021/07/24 08:15:37;;;;;;;;;;;23.00;99.90;;;;;;5079676;28;19978;-60
2021/07/24 08:18:02;;;;;;;;;;;23.10;99.90;;;;;;5086235;28;19916;-60
2021/07/24 08:20:28;;;;;;;;;;;23.20;99.90;;;;;;5079494;28;19935;-58
2021/07/24 08:22:53;;;;;;;;;;;23.40;99.90;;;;;;5081516;28;20370;-61
2021/07/24 08:25:18;;;;;;;;;;;23.50;99.90;;;;;;5082571;28;19936;-59
2021/07/24 08:27:44;;;;;;;;;;;23.60;99.90;;;;;;5081044;28;19909;-60
2021/07/24 08:30:09;;;;;;;;;;;23.60;99.90;;;;;;5081405;28;19920;-59
2021/07/24 08:32:35;;;;;;;;;;;23.90;99.90;;;;;;5064691;28;19913;-58
2021/07/24 08:35:00;;;;;;;;;;;24.10;99.90;;;;;;5080551;28;19908;-59
2021/07/24 08:37:26;;;;;;;;;;;24.40;99.90;;;;;;5085951;28;19955;-58
2021/07/24 08:39:51;;;;;;;;;;;24.60;99.90;;;;;;5079583;28;19915;-60
2021/07/24 08:42:30;;;;;;;;;;;24.70;99.90;;;;;;5084609;28;19916;-59
2021/07/24 08:44:56;;;;;;;;;;;24.60;99.60;;;;;;5084701;28;19953;-56
2021/07/24 08:47:22;;;;;;;;;;;24.60;99.60;;;;;;5086556;28;19983;-59
2021/07/24 08:49:47;;;;;;;;;;;24.30;99.50;;;;;;5085380;28;20011;-58
2021/07/24 08:52:16;;;;;;;;;;;24.20;99.90;;;;;;5085843;28;19973;-59
2021/07/24 08:54:42;;;;;;;;;;;24.30;99.90;;;;;;5086773;28;19916;-58
2021/07/24 08:57:07;;;;;;;;;;;24.40;99.50;;;;;;5067509;28;19908;-59
2021/07/24 08:59:35;;;;;;;;;;;24.60;99.90;;;;;;5086840;28;19908;-58
2021/07/24 09:02:00;;;;;;;;;;;24.70;99.80;;;;;;5084343;28;20379;-60
2021/07/24 09:04:27;;;;;;;;;;;24.80;99.10;;;;;;5086467;28;19926;-59
2021/07/24 09:06:59;;;;;;;;;;;24.60;99.10;;;;;;5084840;28;19944;-59
2021/07/24 09:09:25;;;;;;;;;;;24.50;98.90;;;;;;5085936;28;20397;-59
2021/07/24 09:11:50;;;;;;;;;;;24.60;99.00;;;;;;5086994;28;19935;-61
2021/07/24 09:14:16;;;;;;;;;;;24.70;98.80;;;;;;5086650;28;19957;-58
2021/07/24 09:16:43;;;;;;;;;;;24.50;98.60;;;;;;5086385;28;19923;-60
2021/07/24 09:19:08;;;;;;;;;;;24.60;98.40;;;;;;5085539;28;20362;-60
2021/07/24 09:21:36;;;;;;;;;;;24.50;98.90;;;;;;5086974;28;19908;-59
2021/07/24 09:24:24;;;;;;;;;;;24.50;99.40;;;;;;5086145;28;19908;-59
2021/07/24 09:26:50;;;;;;;;;;;24.60;98.50;;;;;;5088882;28;20452;-58
2021/07/24 09:29:16;;;;;;;;;;;24.90;98.70;;;;;;5080197;28;20369;-60
2021/07/24 09:31:42;;;;;;;;;;;25.30;97.40;;;;;;5089512;28;19940;-60
2021/07/24 09:34:08;;;;;;;;;;;25.60;97.50;;;;;;5084545;28;19995;-60
2021/07/24 09:36:34;;;;;;;;;;;26.00;96.70;;;;;;5088858;28;19912;-59
2021/07/24 09:39:12;;;;;;;;;;;26.20;95.50;;;;;;5084977;28;19953;-59
2021/07/24 09:41:41;;;;;;;;;;;26.20;94.40;;;;;;5077223;28;19923;-56
2021/07/24 09:44:07;;;;;;;;;;;26.10;95.60;;;;;;5088773;28;19961;-60
2021/07/24 09:46:32;;;;;;;;;;;25.90;95.50;;;;;;5081831;28;19912;-59
2021/07/24 09:49:09;;;;;;;;;;;25.60;95.40;;;;;;5089251;28;20317;-59
2021/07/24 09:51:35;;;;;;;;;;;25.70;95.50;;;;;;5081983;28;19931;-60
2021/07/24 09:54:01;;;;;;;;;;;25.70;95.50;;;;;;5089562;28;19908;-61
2021/07/24 09:56:38;;;;;;;;;;;26.00;96.00;;;;;;5082426;28;20393;-61
2021/07/24 09:59:24;;;;;;;;;;;26.30;94.10;;;;;;5066718;28;20375;-60
2021/07/24 10:02:02;;;;;;;;;;;26.50;93.20;;;;;;5085541;28;19913;-61
2021/07/24 10:04:28;;;;;;;;;;;26.60;93.40;;;;;;5074740;28;20431;-59
2021/07/24 10:06:54;;;;;;;;;;;26.80;92.40;;;;;;5085625;28;19909;-60
2021/07/24 10:09:20;;;;;;;;;;;26.80;93.40;;;;;;5087235;28;19916;-58
2021/07/24 10:11:46;;;;;;;;;;;27.00;92.70;;;;;;5087034;28;19909;-60
2021/07/24 10:14:11;;;;;;;;;;;27.10;91.80;;;;;;5086309;28;19912;-58
2021/07/24 10:16:37;;;;;;;;;;;27.10;91.60;;;;;;5085683;28;19922;-58
2021/07/24 10:19:02;;;;;;;;;;;27.10;91.30;;;;;;5084125;28;20376;-58
2021/07/24 10:21:28;;;;;;;;;;;27.00;90.90;;;;;;5084738;28;19908;-59
2021/07/24 10:23:53;;;;;;;;;;;27.00;90.20;;;;;;5085559;28;19915;-59
2021/07/24 10:26:31;;;;;;;;;;;26.80;91.70;;;;;;5074703;28;20348;-59
2021/07/24 10:29:00;;;;;;;;;;;26.70;91.90;;;;;;5084093;28;20332;-58
2021/07/24 10:31:25;;;;;;;;;;;26.80;91.40;;;;;;5078177;28;19970;-59
2021/07/24 10:34:01;;;;;;;;;;;27.00;90.60;;;;;;5084879;28;20371;-59
2021/07/24 10:36:38;;;;;;;;;;;27.10;91.50;;;;;;5068144;28;19912;-58
2021/07/24 10:39:05;;;;;;;;;;;27.20;91.30;;;;;;5082737;28;19938;-59
2021/07/24 10:41:30;;;;;;;;;;;27.40;90.10;;;;;;5080313;28;19923;-58
2021/07/24 10:44:06;;;;;;;;;;;27.50;90.40;;;;;;5087518;28;20289;-58
2021/07/24 10:46:54;;;;;;;;;;;27.60;88.50;;;;;;5080756;28;20329;-59
2021/07/24 10:49:32;;;;;;;;;;;27.70;90.10;;;;;;5080180;28;19927;-59
2021/07/24 10:51:58;;;;;;;;;;;27.90;88.50;;;;;;5079186;28;19932;-59
2021/07/24 10:54:25;;;;;;;;;;;27.90;89.20;;;;;;5087256;28;19912;-58
2021/07/24 10:56:50;;;;;;;;;;;28.10;86.90;;;;;;5080233;28;19915;-59
2021/07/24 10:59:25;;;;;;;;;;;28.00;86.30;;;;;;5084146;28;19908;-60
2021/07/24 11:01:54;;;;;;;;;;;28.00;86.10;;;;;;5081355;28;19939;-59
2021/07/24 11:04:35;;;;;;;;;;;28.00;86.00;;;;;;5082957;28;19999;-59
2021/07/24 11:07:12;;;;;;;;;;;28.00;86.90;;;;;;5082066;28;19908;-59
2021/07/24 11:09:38;;;;;;;;;;;28.10;83.90;;;;;;5084083;28;19920;-61
2021/07/24 11:12:08;;;;;;;;;;;28.20;85.40;;;;;;5083283;28;19908;-60
2021/07/24 11:14:42;;;;;;;;;;;28.20;85.20;;;;;;5083454;28;19915;-60
2021/07/24 11:17:08;;;;;;;;;;;27.90;82.10;;;;;;5081585;28;20353;-61
2021/07/24 11:19:37;;;;;;;;;;;27.80;82.10;;;;;;5083878;28;19948;-60
2021/07/24 11:22:18;;;;;;;;;;;27.80;84.20;;;;;;5082357;28;20003;-60
2021/07/24 11:24:50;;;;;;;;;;;28.00;83.80;;;;;;5075585;28;19965;-59
2021/07/24 11:27:35;;;;;;;;;;;28.20;82.90;;;;;;5073986;28;19909;-61
2021/07/24 11:30:04;;;;;;;;;;;27.90;80.60;;;;;;5078802;28;20463;-58
2021/07/24 11:32:30;;;;;;;;;;;28.00;82.90;;;;;;5084641;28;19915;-59
2021/07/24 11:34:57;;;;;;;;;;;28.20;79.10;;;;;;5080520;28;19908;-59
2021/07/24 11:37:32;;;;;;;;;;;28.20;80.30;;;;;;5087066;28;20454;-60
2021/07/24 11:39:58;;;;;;;;;;;28.10;79.00;;;;;;5078351;28;20409;-59
2021/07/24 11:42:23;;;;;;;;;;;28.20;81.10;;;;;;5083253;28;19951;-61
2021/07/24 11:44:49;;;;;;;;;;;28.30;78.90;;;;;;5080972;28;20325;-60
2021/07/24 11:47:15;;;;;;;;;;;28.00;80.70;;;;;;5082926;28;19908;-60
2021/07/24 11:49:44;;;;;;;;;;;28.10;78.90;;;;;;5082587;28;20366;-60
2021/07/24 11:52:09;;;;;;;;;;;28.30;79.60;;;;;;5079216;28;19939;-60
2021/07/24 11:54:35;;;;;;;;;;;28.40;78.40;;;;;;5060895;28;19975;-58
2021/07/24 11:57:01;;;;;;;;;;;28.50;78.40;;;;;;5080921;28;20409;-59
2021/07/24 11:59:27;;;;;;;;;;;28.50;78.70;;;;;;5082728;28;19912;-58
2021/07/24 12:01:53;;;;;;;;;;;28.60;78.80;;;;;;5080907;28;19908;-60
2021/07/24 12:04:19;;;;;;;;;;;28.60;77.40;;;;;;5082399;28;20393;-58
2021/07/24 12:06:49;;;;;;;;;;;28.80;76.70;;;;;;5081864;28;19917;-60
2021/07/24 12:09:16;;;;;;;;;;;28.80;77.90;;;;;;5082449;28;20370;-59
2021/07/24 12:11:46;;;;;;;;;;;29.00;76.30;;;;;;5083536;28;20009;-58
2021/07/24 12:14:12;;;;;;;;;;;28.60;76.70;;;;;;5081510;28;20297;-59
2021/07/24 12:16:38;;;;;;;;;;;28.70;78.30;;;;;;5081540;28;19914;-60
2021/07/24 12:19:12;;;;;;;;;;;28.80;78.60;;;;;;5081203;28;20003;-59
2021/07/24 12:21:37;;;;;;;;;;;29.10;78.90;;;;;;5082411;28;20554;-59
2021/07/24 12:24:03;;;;;;;;;;;29.30;77.20;;;;;;5082511;28;19908;-60
2021/07/24 12:26:31;;;;;;;;;;;29.40;75.50;;;;;;5081957;28;19912;-60
2021/07/24 12:28:58;;;;;;;;;;;29.50;74.60;;;;;;5081407;28;19930;-58
2021/07/24 12:31:25;;;;;;;;;;;29.40;75.20;;;;;;5081817;28;20366;-58
2021/07/24 12:33:51;;;;;;;;;;;29.40;76.60;;;;;;5082243;28;19990;-58
2021/07/24 12:36:17;;;;;;;;;;;29.20;73.80;;;;;;5081651;28;20007;-58
2021/07/24 12:38:43;;;;;;;;;;;29.30;76.30;;;;;;5082240;28;19909;-58
2021/07/24 12:41:08;;;;;;;;;;;29.50;75.20;;;;;;5079454;28;19916;-60
2021/07/24 12:43:36;;;;;;;;;;;29.60;75.00;;;;;;5083013;28;20393;-59
2021/07/24 12:46:17;;;;;;;;;;;29.70;74.20;;;;;;5079829;28;20527;-57
2021/07/24 12:48:44;;;;;;;;;;;29.80;73.90;;;;;;5066678;28;19995;-58
2021/07/24 12:51:22;;;;;;;;;;;29.80;72.70;;;;;;5078909;28;19915;-59
2021/07/24 12:53:54;;;;;;;;;;;29.70;73.60;;;;;;5086147;28;19946;-59
2021/07/24 12:56:20;;;;;;;;;;;29.80;75.20;;;;;;5073251;28;19955;-58
2021/07/24 12:58:46;;;;;;;;;;;29.90;72.90;;;;;;5078356;28;20342;-57
2021/07/24 13:01:17;;;;;;;;;;;30.00;73.00;;;;;;5084701;28;19913;-58
2021/07/24 13:03:43;;;;;;;;;;;30.10;73.30;;;;;;5078444;28;19915;-59
2021/07/24 13:06:10;;;;;;;;;;;30.00;70.80;;;;;;5085424;28;20363;-57
2021/07/24 13:08:36;;;;;;;;;;;29.80;72.70;;;;;;5078500;28;19959;-57
2021/07/24 13:11:02;;;;;;;;;;;29.60;72.10;;;;;;5086328;28;19951;-58
2021/07/24 13:13:27;;;;;;;;;;;29.80;72.90;;;;;;5078254;28;19913;-57
2021/07/24 13:15:53;;;;;;;;;;;29.50;72.10;;;;;;5078732;28;19927;-59
2021/07/24 13:18:18;;;;;;;;;;;29.50;72.80;;;;;;5084376;28;20497;-58
2021/07/24 13:20:44;;;;;;;;;;;29.40;73.30;;;;;;5073868;28;20001;-54
2021/07/24 13:23:09;;;;;;;;;;;29.60;73.10;;;;;;5082499;28;19996;-58
2021/07/24 13:28:17;;;;;;;;;;;30.00;72.50;;;;;;5078709;28;20005;-59
2021/07/24 13:30:47;;;;;;;;;;;30.10;72.30;;;;;;5084960;28;19939;-58
2021/07/24 13:33:13;;;;;;;;;;;30.10;71.20;;;;;;5084808;28;20444;-57
2021/07/24 13:35:40;;;;;;;;;;;30.30;72.60;;;;;;5084797;28;19908;-56
2021/07/24 13:38:05;;;;;;;;;;;30.40;72.80;;;;;;5084829;28;19983;-58
2021/07/24 13:40:31;;;;;;;;;;;30.40;71.10;;;;;;5085259;28;19926;-55
2021/07/24 13:43:01;;;;;;;;;;;30.40;70.50;;;;;;5113913;22;20592;-50
2021/07/24 13:45:27;;;;;;;;;;;30.40;71.90;;;;;;5092845;28;19922;-53
2021/07/24 13:47:53;;;;;;;;;;;30.60;70.70;;;;;;5075008;28;19909;-54
2021/07/24 13:50:18;;;;;;;;;;;30.50;71.70;;;;;;5093272;28;19912;-51
2021/07/24 13:52:44;;;;;;;;;;;30.50;70.80;;;;;;5092986;28;20289;-52
2021/07/24 13:55:09;;;;;;;;;;;30.60;72.10;;;;;;5087119;28;19938;-47
2021/07/24 13:57:35;;;;;;;;;;;30.60;70.90;;;;;;5100623;28;19915;-54
2021/07/24 14:00:01;;;;;;;;;;;30.80;70.50;;;;;;5092406;28;19908;-51
2021/07/24 14:02:26;;;;;;;;;;;30.70;70.40;;;;;;5089123;28;19908;-54
2021/07/24 14:04:52;;;;;;;;;;;30.70;70.20;;;;;;5091071;28;19909;-56
2021/07/24 14:07:17;;;;;;;;;;;30.70;70.70;;;;;;5088349;28;19915;-52
2021/07/24 14:09:43;;;;;;;;;;;30.80;71.90;;;;;;5090781;28;19943;-47
2021/07/24 14:12:08;;;;;;;;;;;30.80;70.30;;;;;;5087050;28;19908;-52
2021/07/24 14:14:34;;;;;;;;;;;30.80;71.40;;;;;;5089361;28;20053;-51
2021/07/24 14:16:59;;;;;;;;;;;30.70;69.50;;;;;;5091960;28;19908;-57
2021/07/24 14:19:25;;;;;;;;;;;30.60;71.10;;;;;;5088748;28;19960;-54